YSB233 ZUUU-ZSSS
Flight info
| Callsign | YSB233 |
|---|---|
| Flight time | N/A |
| Altitude | 41100 |
| Route | UBRAB9W UBRAB B213 WHA R343 SASAN SAS62A |
| Aircraft | A359/H-SDE2E3GHIJ3J4J5LM1ORWXY/LB1D1 |
Departure
| Time | 2026-05-05 10:26 |
|---|---|
| Airport | Chengdu Shuangliu International Airport (ZUUU) |
Arrival
| Time | N/A |
|---|---|
| Airport | Shanghai Hongqiao International Airport (ZSSS) |
| Time | Latitude | Longitude | Altitude | Speed | Heading |
|---|---|---|---|---|---|
| 2026-05-05 10:25 | 30.68675 | 104.00224 | 4519 ft | 271 kts | 49° |
| 2026-05-05 10:26 | 30.69741 | 104.02032 | 5118 ft | 271 kts | 62° |
| 2026-05-05 10:26 | 30.70654 | 104.03922 | 5742 ft | 274 kts | 63° |
| 2026-05-05 10:26 | 30.71585 | 104.05855 | 6333 ft | 277 kts | 63° |
| 2026-05-05 10:26 | 30.72547 | 104.07847 | 6875 ft | 282 kts | 62° |
| 2026-05-05 10:27 | 30.73522 | 104.09849 | 7428 ft | 286 kts | 62° |
| 2026-05-05 10:27 | 30.74501 | 104.11852 | 7987 ft | 291 kts | 62° |
| 2026-05-05 10:27 | 30.75536 | 104.13904 | 8522 ft | 297 kts | 57° |
| 2026-05-05 10:27 | 30.77096 | 104.15478 | 9025 ft | 303 kts | 26° |
| 2026-05-05 10:28 | 30.79094 | 104.16286 | 9618 ft | 306 kts | 15° |
| 2026-05-05 10:28 | 30.81142 | 104.17000 | 10149 ft | 310 kts | 17° |
| 2026-05-05 10:28 | 30.83229 | 104.17805 | 10430 ft | 323 kts | 19° |
| 2026-05-05 10:28 | 30.85387 | 104.18714 | 10670 ft | 337 kts | 20° |
| 2026-05-05 10:29 | 30.87620 | 104.19704 | 10904 ft | 349 kts | 21° |
| 2026-05-05 10:29 | 30.89917 | 104.20748 | 11139 ft | 361 kts | 21° |
| 2026-05-05 10:29 | 30.92294 | 104.21842 | 11353 ft | 372 kts | 21° |
| 2026-05-05 10:29 | 30.94733 | 104.22972 | 11581 ft | 381 kts | 21° |
| 2026-05-05 10:30 | 30.97223 | 104.24065 | 11931 ft | 385 kts | 25° |
| 2026-05-05 10:30 | 30.99380 | 104.25919 | 12301 ft | 388 kts | 48° |
| 2026-05-05 10:30 | 31.00805 | 104.28560 | 12664 ft | 389 kts | 70° |
| 2026-05-05 10:30 | 31.01317 | 104.31620 | 13009 ft | 387 kts | 92° |
| 2026-05-05 10:31 | 31.00839 | 104.34675 | 13412 ft | 382 kts | 112° |
| 2026-05-05 10:31 | 30.99907 | 104.37586 | 13776 ft | 385 kts | 109° |
| 2026-05-05 10:31 | 30.99344 | 104.40644 | 14094 ft | 391 kts | 100° |
| 2026-05-05 10:31 | 30.99107 | 104.43825 | 14445 ft | 394 kts | 94° |
| 2026-05-05 10:32 | 30.99076 | 104.47022 | 14782 ft | 397 kts | 91° |
| 2026-05-05 10:32 | 30.99164 | 104.50246 | 15126 ft | 400 kts | 89° |
| 2026-05-05 10:32 | 30.99316 | 104.53498 | 15485 ft | 402 kts | 88° |
| 2026-05-05 10:32 | 30.99503 | 104.56757 | 15827 ft | 405 kts | 87° |
| 2026-05-05 10:33 | 30.99711 | 104.60043 | 16183 ft | 407 kts | 86° |
| 2026-05-05 10:33 | 30.99927 | 104.63332 | 16523 ft | 409 kts | 86° |